Time;durP1;ratioP1;P1;durP2;ratioP2;P2;SDS_P1;SDS_P2;PMS_P1;PMS_P2;Temp;Humidity;BMP_temperature;BMP_pressure;BME280_temperature;BME280_humidity;BME280_pressure;Samples;Min_cycle;Max_cycle;Signal;HPM_P1;HPM_P2
2021/11/26 00:02:18;;;;;;;;;;;6.80;99.90;;;;;;6170684;23;20133;-78
2021/11/26 00:04:44;;;;;;;33.97;19.95;;;6.80;99.90;;;;;;6168553;23;19911;-79
2021/11/26 00:07:09;;;;;;;;;;;6.80;99.90;;;;;;6170214;23;20012;-78
2021/11/26 00:09:35;;;;;;;29.40;18.73;;;6.70;99.90;;;;;;6170639;23;19900;-78
2021/11/26 00:12:01;;;;;;;;;;;6.60;99.90;;;;;;6172981;23;19997;-79
2021/11/26 00:14:42;;;;;;;29.50;16.83;;;6.60;99.90;;;;;;6171371;23;19901;-78
2021/11/26 00:17:15;;;;;;;27.80;16.63;;;6.60;99.90;;;;;;6168937;23;20068;-78
2021/11/26 00:19:42;;;;;;;29.40;16.33;;;6.70;99.90;;;;;;6169122;23;20026;-79
2021/11/26 00:22:08;;;;;;;23.65;15.90;;;6.60;99.90;;;;;;6169165;23;20006;-77
2021/11/26 00:24:36;;;;;;;23.85;16.50;;;6.70;99.90;;;;;;6169532;23;20014;-77
2021/11/26 00:27:02;;;;;;;;;;;6.70;99.90;;;;;;6171179;23;20002;-78
2021/11/26 00:29:34;;;;;;;28.00;17.63;;;6.60;99.90;;;;;;6169635;23;20031;-79
2021/11/26 00:32:00;;;;;;;32.85;19.40;;;6.60;99.90;;;;;;6169976;23;20024;-78
2021/11/26 00:34:34;;;;;;;32.22;18.52;;;6.80;99.90;;;;;;6170072;23;20001;-78
2021/11/26 00:37:01;;;;;;;32.00;18.45;;;6.70;99.90;;;;;;6168075;23;20006;-78
2021/11/26 00:39:28;;;;;;;27.60;18.23;;;6.70;99.90;;;;;;6168133;23;20005;-79
2021/11/26 00:41:54;;;;;;;28.25;18.17;;;6.70;99.90;;;;;;6166625;23;20033;-78
2021/11/26 00:44:22;;;;;;;;;;;6.60;99.90;;;;;;6168396;23;20013;-78
2021/11/26 00:46:48;;;;;;;25.33;16.33;;;6.60;99.90;;;;;;6169546;23;19915;-78
2021/11/26 00:49:14;;;;;;;24.75;16.23;;;6.60;99.90;;;;;;6168514;23;20009;-78
2021/11/26 00:51:40;;;;;;;;;;;6.50;99.90;;;;;;6170026;23;20002;-78
2021/11/26 00:54:06;;;;;;;27.55;17.30;;;6.60;99.90;;;;;;6170154;23;19900;-78
2021/11/26 00:56:34;;;;;;;;;;;6.60;99.90;;;;;;6143041;23;20020;-78
2021/11/26 00:59:01;;;;;;;30.83;19.08;;;6.70;99.90;;;;;;6165449;23;20250;-77
2021/11/26 01:01:27;;;;;;;38.97;24.92;;;6.70;99.90;;;;;;6137525;23;20088;-78
2021/11/26 01:03:53;;;;;;;;;;;6.60;99.90;;;;;;6140931;23;20328;-77
2021/11/26 01:06:19;;;;;;;31.70;18.70;;;6.60;99.90;;;;;;6164855;23;19916;-77
2021/11/26 01:08:45;;;;;;;;;;;6.50;99.90;;;;;;6166975;23;20005;-78
2021/11/26 01:11:11;;;;;;;27.63;17.80;;;6.50;99.90;;;;;;6144668;23;19893;-78
2021/11/26 01:13:37;;;;;;;;;;;6.60;99.90;;;;;;6163145;23;20009;-78
2021/11/26 01:16:06;;;;;;;30.45;17.85;;;6.60;99.90;;;;;;6166499;23;19920;-79
2021/11/26 01:18:32;;;;;;;35.17;18.95;;;6.50;99.90;;;;;;6169145;23;20021;-78
2021/11/26 01:20:58;;;;;;;;;;;6.50;99.90;;;;;;6163774;23;20005;-78
2021/11/26 01:23:25;;;;;;;29.65;18.65;;;6.40;99.90;;;;;;6164641;23;19927;-78
2021/11/26 01:25:51;;;;;;;32.78;20.65;;;6.50;99.90;;;;;;6162377;23;20017;-78
2021/11/26 01:28:17;;;;;;;36.47;18.95;;;6.40;99.90;;;;;;6161235;23;20010;-78
2021/11/26 01:30:46;;;;;;;;;;;6.40;99.90;;;;;;6162252;23;20012;-79
2021/11/26 01:33:14;;;;;;;32.25;18.90;;;6.30;99.90;;;;;;6163034;23;19904;-78
2021/11/26 01:35:41;;;;;;;33.30;19.75;;;6.20;99.90;;;;;;6160821;23;20006;-77
2021/11/26 01:38:08;;;;;;;35.28;20.08;;;6.10;99.90;;;;;;6160304;23;20405;-78
2021/11/26 01:40:36;;;;;;;33.17;21.15;;;6.10;99.90;;;;;;6160174;23;20017;-78
2021/11/26 01:43:04;;;;;;;36.53;20.95;;;6.10;99.90;;;;;;6161407;23;20010;-78
2021/11/26 01:45:29;;;;;;;31.45;20.75;;;6.00;99.90;;;;;;6170740;23;20026;-78
2021/11/26 01:47:55;;;;;;;;;;;5.90;99.90;;;;;;6172337;23;20001;-78
2021/11/26 01:50:25;;;;;;;34.17;19.98;;;5.90;99.90;;;;;;6170797;23;19905;-78
2021/11/26 01:52:51;;;;;;;33.72;21.20;;;5.80;99.90;;;;;;6171411;23;20005;-77
2021/11/26 01:55:18;;;;;;;33.33;20.42;;;5.80;99.90;;;;;;6171918;23;20005;-78
2021/11/26 01:57:45;;;;;;;35.13;19.92;;;5.70;99.90;;;;;;6172542;23;20013;-78
2021/11/26 02:00:14;;;;;;;38.85;23.48;;;5.60;99.90;;;;;;6172438;23;19997;-78
2021/11/26 02:02:40;;;;;;;36.17;22.70;;;5.60;99.90;;;;;;6171878;23;20005;-78
2021/11/26 02:05:06;;;;;;;;;;;5.50;99.90;;;;;;6171571;23;20013;-78
2021/11/26 02:07:32;;;;;;;34.35;21.30;;;5.50;99.90;;;;;;6169431;23;20319;-78
2021/11/26 02:09:57;;;;;;;33.03;21.60;;;5.40;99.90;;;;;;6169304;23;20010;-79
2021/11/26 02:12:23;;;;;;;37.95;22.52;;;5.30;99.90;;;;;;6169265;23;20002;-78
2021/11/26 02:14:48;;;;;;;;;;;5.40;99.90;;;;;;6168483;23;20009;-78
2021/11/26 02:17:15;;;;;;;31.48;21.45;;;5.50;99.90;;;;;;6169409;23;19992;-77
2021/11/26 02:19:40;;;;;;;;;;;5.50;99.90;;;;;;6169012;23;20084;-78
2021/11/26 02:22:06;;;;;;;37.60;20.27;;;5.60;99.90;;;;;;6167125;23;19904;-78
2021/11/26 02:24:32;;;;;;;37.67;22.25;;;5.70;99.90;;;;;;6165796;23;20017;-78
2021/11/26 02:26:57;;;;;;;33.88;20.33;;;5.60;99.90;;;;;;6166150;23;20048;-77
2021/11/26 02:29:24;;;;;;;;;;;5.60;99.90;;;;;;6167375;23;20001;-77
2021/11/26 02:31:52;;;;;;;36.67;21.02;;;5.60;99.90;;;;;;6165735;23;19901;-78
2021/11/26 02:34:18;;;;;;;33.45;20.92;;;5.50;99.90;;;;;;6167083;23;20012;-78
2021/11/26 02:36:44;;;;;;;34.22;20.42;;;5.60;99.90;;;;;;6168273;23;20001;-78
2021/11/26 02:39:10;;;;;;;;;;;5.50;99.90;;;;;;6166734;23;20045;-78
2021/11/26 02:41:38;;;;;;;36.65;21.38;;;5.40;99.90;;;;;;6168933;23;19917;-78
2021/11/26 02:44:04;;;;;;;32.60;20.65;;;5.40;99.90;;;;;;6170384;23;20021;-78
2021/11/26 02:46:30;;;;;;;33.10;21.63;;;5.30;99.90;;;;;;6162242;23;20037;-77
2021/11/26 02:48:56;;;;;;;;;;;5.40;99.90;;;;;;6161922;23;20060;-77
2021/11/26 02:51:21;;;;;;;31.42;20.45;;;5.40;99.90;;;;;;6160449;23;19904;-77
2021/11/26 02:53:47;;;;;;;;;;;5.50;99.90;;;;;;6160087;23;20001;-77
2021/11/26 02:56:13;;;;;;;33.00;19.60;;;5.40;99.90;;;;;;6156989;23;19905;-78
2021/11/26 02:58:38;;;;;;;;;;;5.50;99.90;;;;;;6162158;23;20435;-78
2021/11/26 03:01:04;;;;;;;37.00;20.55;;;5.50;99.90;;;;;;6165769;23;20446;-78
2021/11/26 03:03:30;;;;;;;36.40;21.55;;;5.50;99.90;;;;;;6167347;23;20024;-77
2021/11/26 03:06:00;;;;;;;;;;;5.60;99.90;;;;;;6166882;23;20018;-77
2021/11/26 03:08:26;;;;;;;33.40;21.63;;;5.50;99.90;;;;;;6167555;23;19980;-78
2021/11/26 03:10:51;;;;;;;;;;;5.40;99.90;;;;;;6170522;23;20001;-77
2021/11/26 03:13:17;;;;;;;38.58;22.33;;;5.30;99.90;;;;;;6170220;23;19980;-78
2021/11/26 03:15:44;;;;;;;;;;;5.30;99.90;;;;;;6169052;23;20036;-78
2021/11/26 03:18:13;;;;;;;33.33;20.75;;;5.20;99.90;;;;;;6167069;23;19900;-78
2021/11/26 03:20:39;;;;;;;41.55;22.98;;;5.20;99.90;;;;;;6164256;23;20009;-79
2021/11/26 03:23:05;;;;;;;;;;;5.10;99.90;;;;;;6179734;23;19996;-79
2021/11/26 03:25:30;;;;;;;40.05;21.75;;;4.90;99.90;;;;;;6171121;23;19920;-79
2021/11/26 03:27:56;;;;;;;33.70;21.27;;;5.00;99.90;;;;;;6166886;23;20005;-78
2021/11/26 03:30:23;;;;;;;35.83;22.77;;;5.00;99.90;;;;;;6169161;23;20037;-78
2021/11/26 03:32:50;;;;;;;37.55;22.27;;;5.00;99.90;;;;;;6156941;23;20006;-77
2021/11/26 03:35:18;;;;;;;35.70;22.75;;;5.20;99.90;;;;;;6161263;23;20096;-77
2021/11/26 03:37:45;;;;;;;38.38;21.60;;;5.20;99.90;;;;;;6163273;23;20001;-78
2021/11/26 03:40:15;;;;;;;37.35;22.08;;;5.10;99.90;;;;;;6164634;23;20037;-78
2021/11/26 03:42:41;;;;;;;36.97;22.95;;;5.20;99.90;;;;;;6165391;23;20040;-78
2021/11/26 03:45:07;;;;;;;;;;;5.30;99.90;;;;;;6165607;23;20406;-78
2021/11/26 03:47:34;;;;;;;33.40;21.40;;;5.30;99.90;;;;;;6164755;23;19991;-78
2021/11/26 03:49:59;;;;;;;35.28;20.95;;;5.30;99.90;;;;;;6164138;23;20021;-78
2021/11/26 03:52:25;;;;;;;;;;;5.20;99.90;;;;;;6162382;23;20005;-77
2021/11/26 03:54:51;;;;;;;32.33;20.42;;;5.30;99.90;;;;;;6156111;23;19948;-77
2021/11/26 03:57:17;;;;;;;32.78;21.30;;;5.40;99.90;;;;;;6158802;23;20001;-77
2021/11/26 03:59:43;;;;;;;31.55;19.80;;;5.30;99.90;;;;;;6158665;23;20454;-77
2021/11/26 04:02:09;;;;;;;;;;;5.30;99.90;;;;;;6161226;23;20096;-78
2021/11/26 04:04:35;;;;;;;33.03;19.45;;;5.20;99.90;;;;;;6161270;23;19913;-77
2021/11/26 04:07:01;;;;;;;33.95;19.60;;;5.30;99.90;;;;;;6161217;23;20021;-78
2021/11/26 04:09:26;;;;;;;;;;;5.30;99.90;;;;;;6160535;23;20077;-78
2021/11/26 04:11:52;;;;;;;30.88;18.30;;;5.40;99.90;;;;;;6161345;23;19900;-78
2021/11/26 04:14:17;;;;;;;;;;;5.40;99.90;;;;;;6158870;23;20013;-78
2021/11/26 04:16:45;;;;;;;32.35;18.55;;;5.50;99.90;;;;;;6161262;23;19905;-78
2021/11/26 04:19:11;;;;;;;32.80;18.42;;;5.30;99.90;;;;;;6161623;23;20308;-77
2021/11/26 04:21:37;;;;;;;;;;;5.30;99.90;;;;;;6158357;23;20420;-78
2021/11/26 04:24:02;;;;;;;34.60;19.75;;;5.40;99.90;;;;;;6158253;23;19904;-77
2021/11/26 04:26:28;;;;;;;;;;;5.40;99.90;;;;;;6158995;23;20017;-78
2021/11/26 04:28:54;;;;;;;28.70;18.40;;;5.40;99.90;;;;;;6157046;23;19905;-77
2021/11/26 04:31:20;;;;;;;;;;;5.30;99.90;;;;;;6158059;23;20324;-77
2021/11/26 04:33:47;;;;;;;27.67;17.13;;;5.30;99.90;;;;;;6157190;23;19983;-76
2021/11/26 04:36:13;;;;;;;31.52;18.77;;;5.40;99.90;;;;;;6156411;23;20025;-76
2021/11/26 04:38:39;;;;;;;31.05;18.65;;;5.50;99.90;;;;;;6160744;23;20080;-77
2021/11/26 04:41:04;;;;;;;;;;;5.40;99.90;;;;;;6161358;23;20042;-77
2021/11/26 04:43:30;;;;;;;30.15;17.23;;;5.50;99.90;;;;;;6161692;23;19905;-77
2021/11/26 04:45:55;;;;;;;;;;;5.50;99.90;;;;;;6160522;23;20013;-78
2021/11/26 04:48:22;;;;;;;31.88;17.05;;;5.50;99.90;;;;;;6164245;23;19912;-77
2021/11/26 04:50:48;;;;;;;;;;;5.60;99.90;;;;;;6166020;23;20012;-77
2021/11/26 04:53:14;;;;;;;33.15;17.50;;;5.60;99.90;;;;;;6164846;23;20597;-77
2021/11/26 04:55:39;;;;;;;;;;;5.70;99.90;;;;;;6167762;23;20009;-78
2021/11/26 04:58:05;;;;;;;30.73;16.70;;;5.80;99.90;;;;;;6168386;23;19958;-78
2021/11/26 05:00:31;;;;;;;;;;;5.80;99.90;;;;;;6171111;23;20010;-78
2021/11/26 05:02:56;;;;;;;26.70;16.65;;;5.90;99.90;;;;;;6168494;23;20368;-76
2021/11/26 05:05:23;;;;;;;;;;;6.00;99.90;;;;;;6175068;23;20013;-79
2021/11/26 05:07:49;;;;;;;25.33;14.77;;;6.00;99.90;;;;;;6176270;23;19900;-79
2021/11/26 05:10:18;;;;;;;31.15;18.52;;;6.20;99.90;;;;;;6162670;23;20005;-77
2021/11/26 05:12:48;;;;;;;28.50;15.65;;;6.10;99.90;;;;;;6158492;23;20002;-77
2021/11/26 05:15:15;;;;;;;29.30;16.83;;;6.10;99.90;;;;;;6157894;23;20001;-78
2021/11/26 05:17:42;;;;;;;25.35;15.43;;;6.10;99.90;;;;;;6164050;23;20006;-77
2021/11/26 05:20:08;;;;;;;27.73;14.57;;;6.20;99.90;;;;;;6163542;23;20032;-78
2021/11/26 05:22:34;;;;;;;30.10;17.17;;;6.30;99.90;;;;;;6161854;23;20009;-77
2021/11/26 05:24:59;;;;;;;;;;;6.40;99.90;;;;;;6167281;23;20036;-78
2021/11/26 05:27:25;;;;;;;23.88;15.40;;;6.40;99.90;;;;;;6171105;23;19905;-78
2021/11/26 05:29:51;;;;;;;28.38;15.55;;;6.40;99.90;;;;;;6169882;23;20005;-78
2021/11/26 05:32:16;;;;;;;29.65;15.77;;;6.40;99.90;;;;;;6168434;23;20005;-77
2021/11/26 05:34:42;;;;;;;25.98;15.65;;;6.40;99.90;;;;;;6157959;23;20006;-76
2021/11/26 05:37:07;;;;;;;21.92;13.68;;;6.30;99.90;;;;;;6159216;23;20009;-77
2021/11/26 05:39:33;;;;;;;;;;;6.30;99.90;;;;;;6157957;23;20008;-77
2021/11/26 05:41:59;;;;;;;24.95;14.80;;;6.30;99.90;;;;;;6157818;23;19912;-77
2021/11/26 05:44:24;;;;;;;;;;;6.40;99.90;;;;;;6158145;23;20020;-77
2021/11/26 05:46:50;;;;;;;26.35;13.82;;;6.40;99.90;;;;;;6159762;23;19901;-78
2021/11/26 05:49:16;;;;;;;;;;;6.30;99.90;;;;;;6166883;23;20061;-78
2021/11/26 05:51:41;;;;;;;26.25;13.98;;;6.30;99.90;;;;;;6163143;23;19963;-77
2021/11/26 05:54:07;;;;;;;;;;;6.30;99.90;;;;;;6167002;23;20934;-77
2021/11/26 05:56:33;;;;;;;24.58;14.13;;;6.30;99.90;;;;;;6161268;23;19912;-77
2021/11/26 05:59:01;;;;;;;;;;;6.30;99.90;;;;;;6159056;23;20013;-77
2021/11/26 06:01:27;;;;;;;22.85;13.77;;;6.40;99.90;;;;;;6154934;23;19900;-77
2021/11/26 06:03:53;;;;;;;;;;;6.20;99.90;;;;;;6156129;23;20390;-77
2021/11/26 06:06:18;;;;;;;21.35;11.98;;;6.40;99.90;;;;;;6157478;23;19908;-77
2021/11/26 06:08:44;;;;;;;20.25;12.13;;;6.50;99.90;;;;;;6169845;23;20032;-76
2021/11/26 06:11:10;;;;;;;;;;;6.60;99.90;;;;;;6171368;23;20010;-77
2021/11/26 06:13:35;;;;;;;21.65;13.00;;;6.60;99.90;;;;;;6162567;23;19900;-77
2021/11/26 06:16:01;;;;;;;;;;;6.40;99.90;;;;;;6167307;23;19998;-77
2021/11/26 06:18:27;;;;;;;19.73;12.65;;;6.40;99.90;;;;;;6164348;23;20326;-77
2021/11/26 06:20:54;;;;;;;;;;;6.50;99.90;;;;;;6176128;23;19994;-78
2021/11/26 06:23:28;;;;;;;22.63;12.45;;;6.60;99.90;;;;;;6173455;23;19904;-77
2021/11/26 06:25:54;;;;;;;;;;;6.60;99.90;;;;;;6177538;23;20071;-78
2021/11/26 06:28:21;;;;;;;35.42;14.75;;;6.50;99.90;;;;;;6170816;23;19908;-77
2021/11/26 06:30:47;;;;;;;23.33;12.73;;;6.50;99.90;;;;;;6170186;23;20029;-77
2021/11/26 06:33:12;;;;;;;;;;;6.70;99.90;;;;;;6162909;23;20002;-78
2021/11/26 06:35:38;;;;;;;31.83;13.95;;;6.90;99.90;;;;;;6165912;23;20592;-77
2021/11/26 06:38:04;;;;;;;26.95;14.15;;;6.90;99.90;;;;;;6166537;23;20025;-78
2021/11/26 06:40:30;;;;;;;25.88;13.93;;;6.90;99.90;;;;;;6168779;23;20012;-77
2021/11/26 06:42:56;;;;;;;;;;;6.80;99.90;;;;;;6164716;23;20193;-77
2021/11/26 06:45:22;;;;;;;26.48;14.50;;;6.70;99.90;;;;;;6164766;23;20386;-78
2021/11/26 06:47:48;;;;;;;;;;;6.60;99.90;;;;;;6161773;23;20009;-77
2021/11/26 06:50:15;;;;;;;22.90;13.15;;;6.50;99.90;;;;;;6162647;23;19904;-77
2021/11/26 06:52:41;;;;;;;23.65;13.95;;;6.60;99.90;;;;;;6168348;23;20009;-77
2021/11/26 06:55:08;;;;;;;25.85;13.18;;;6.70;99.90;;;;;;6163404;23;20025;-76
2021/11/26 07:00:24;;;;;;;21.40;12.15;;;6.60;99.90;;;;;;6161670;23;20052;-77
2021/11/26 07:02:49;;;;;;;23.27;12.27;;;6.70;99.90;;;;;;6157615;23;20072;-76
2021/11/26 07:05:15;;;;;;;;;;;6.70;99.90;;;;;;6162261;23;20013;-77
2021/11/26 07:07:41;;;;;;;18.95;11.40;;;7.00;99.90;;;;;;6170423;23;19915;-78
2021/11/26 07:10:07;;;;;;;;;;;7.00;99.90;;;;;;6167505;23;20001;-79
2021/11/26 07:12:34;;;;;;;25.50;10.55;;;7.10;99.90;;;;;;6169347;23;19907;-78
2021/11/26 07:15:01;;;;;;;18.70;9.93;;;7.10;99.90;;;;;;6170431;23;20051;-78
2021/11/26 07:17:27;;;;;;;19.33;10.57;;;7.20;99.90;;;;;;6167741;23;20017;-78
2021/11/26 07:19:53;;;;;;;;;;;7.30;99.90;;;;;;6165532;23;20006;-78
2021/11/26 07:22:19;;;;;;;18.30;9.68;;;7.30;99.90;;;;;;6162807;23;19904;-77
2021/11/26 07:24:45;;;;;;;21.67;11.23;;;7.40;99.90;;;;;;6164029;23;20016;-77
2021/11/26 07:27:12;;;;;;;18.27;9.32;;;7.40;99.90;;;;;;6165079;23;20061;-77
2021/11/26 07:29:38;;;;;;;24.40;11.52;;;7.40;99.90;;;;;;6165848;23;20053;-77
2021/11/26 07:32:05;;;;;;;21.02;11.25;;;7.40;99.90;;;;;;6166823;23;20001;-78
2021/11/26 07:34:30;;;;;;;16.00;9.70;;;7.50;99.90;;;;;;6165639;23;20013;-77
2021/11/26 07:36:57;;;;;;;;;;;7.50;99.90;;;;;;6165781;23;20017;-79
2021/11/26 07:39:24;;;;;;;16.80;9.27;;;7.40;99.90;;;;;;6165003;23;19971;-77
2021/11/26 07:41:50;;;;;;;16.77;8.68;;;7.40;99.90;;;;;;6166279;23;20041;-77
2021/11/26 07:44:16;;;;;;;14.00;9.27;;;7.50;99.90;;;;;;6164868;23;20013;-78
2021/11/26 07:46:41;;;;;;;;;;;7.60;99.90;;;;;;6165812;23;20005;-77
2021/11/26 07:49:07;;;;;;;19.17;11.65;;;7.50;99.90;;;;;;6165039;23;19905;-78
2021/11/26 07:51:33;;;;;;;;;;;7.50;99.90;;;;;;6163438;23;20005;-77
2021/11/26 07:53:59;;;;;;;78.75;34.72;;;7.50;99.90;;;;;;6161699;23;19901;-77
2021/11/26 07:56:24;;;;;;;66.88;28.02;;;7.60;99.90;;;;;;6160219;23;20443;-77
2021/11/26 07:58:50;;;;;;;;;;;7.70;99.90;;;;;;6162603;23;20006;-78
2021/11/26 08:01:16;;;;;;;78.25;37.03;;;7.80;99.90;;;;;;6161304;23;19939;-76
2021/11/26 08:03:42;;;;;;;;;;;7.70;99.90;;;;;;6161509;23;20407;-77
2021/11/26 08:06:08;;;;;;;29.02;16.35;;;7.70;99.90;;;;;;6160078;23;19913;-77
2021/11/26 08:08:33;;;;;;;;;;;7.80;99.90;;;;;;6166457;23;19998;-78
2021/11/26 08:11:00;;;;;;;20.20;12.63;;;7.80;99.90;;;;;;6162196;23;19963;-77
2021/11/26 08:13:25;;;;;;;22.02;12.32;;;7.80;99.90;;;;;;6163924;23;20012;-78
2021/11/26 08:15:51;;;;;;;;;;;7.80;99.90;;;;;;6164530;23;20009;-78
2021/11/26 08:18:17;;;;;;;17.00;10.68;;;7.90;99.90;;;;;;6164663;23;19987;-77
2021/11/26 08:20:42;;;;;;;;;;;7.80;99.90;;;;;;6166260;23;20005;-77
2021/11/26 08:23:08;;;;;;;17.40;10.35;;;7.90;99.90;;;;;;6166873;23;19908;-78
2021/11/26 08:25:35;;;;;;;16.42;9.77;;;8.00;99.90;;;;;;6166954;23;20013;-77
2021/11/26 08:28:02;;;;;;;14.93;9.77;;;8.10;99.90;;;;;;6165839;23;20009;-78
2021/11/26 08:30:27;;;;;;;15.98;9.25;;;8.10;99.90;;;;;;6165095;23;20006;-77
2021/11/26 08:32:53;;;;;;;;;;;8.10;99.90;;;;;;6166876;23;20006;-78
2021/11/26 08:35:20;;;;;;;20.33;9.40;;;8.30;99.90;;;;;;6165463;23;19924;-77
2021/11/26 08:37:48;;;;;;;14.23;9.48;;;8.30;99.90;;;;;;6166971;23;20053;-76
2021/11/26 08:40:15;;;;;;;14.52;9.32;;;8.20;99.90;;;;;;6164772;23;20027;-76
2021/11/26 08:42:41;;;;;;;13.95;8.88;;;8.40;99.90;;;;;;6166435;23;20018;-78
2021/11/26 08:45:07;;;;;;;;;;;8.40;99.90;;;;;;6166413;23;20040;-77
2021/11/26 08:47:34;;;;;;;12.00;7.85;;;8.50;99.90;;;;;;6164364;23;20330;-78
2021/11/26 08:50:00;;;;;;;13.77;9.05;;;8.50;99.90;;;;;;6167276;23;20017;-78
2021/11/26 08:52:26;;;;;;;;;;;8.50;99.90;;;;;;6164659;23;20005;-78
2021/11/26 08:54:52;;;;;;;12.27;8.10;;;8.50;99.90;;;;;;6164427;23;19901;-77
2021/11/26 08:57:18;;;;;;;;;;;8.50;99.90;;;;;;6165670;23;20013;-77
2021/11/26 08:59:44;;;;;;;12.50;7.68;;;8.60;99.90;;;;;;6167169;23;19936;-77
2021/11/26 09:02:12;;;;;;;15.32;8.15;;;8.70;99.90;;;;;;6166571;23;20009;-77
2021/11/26 09:04:38;;;;;;;13.75;7.75;;;8.80;99.90;;;;;;6165580;23;20041;-78
2021/11/26 09:07:03;;;;;;;14.88;7.88;;;8.80;99.90;;;;;;6167490;23;19998;-77
2021/11/26 09:09:29;;;;;;;;;;;8.90;99.90;;;;;;6165531;23;20020;-77
2021/11/26 09:11:55;;;;;;;15.05;8.20;;;8.90;99.90;;;;;;6166429;23;19949;-78
2021/11/26 09:14:20;;;;;;;12.52;7.95;;;9.00;99.90;;;;;;6168513;23;20057;-77
2021/11/26 09:16:46;;;;;;;14.05;7.60;;;9.00;99.90;;;;;;6167288;23;19998;-78
2021/11/26 09:19:12;;;;;;;;;;;9.10;99.90;;;;;;6164962;23;20009;-77
2021/11/26 09:21:38;;;;;;;13.80;7.53;;;9.00;99.90;;;;;;6168109;23;20383;-78
2021/11/26 09:24:04;;;;;;;10.63;6.57;;;9.00;99.90;;;;;;6166051;23;20039;-78
2021/11/26 09:26:30;;;;;;;10.80;6.47;;;9.00;99.90;;;;;;6164277;23;20586;-77
2021/11/26 09:28:56;;;;;;;11.82;7.65;;;9.10;99.90;;;;;;6166972;23;20001;-78
2021/11/26 09:31:23;;;;;;;;;;;9.10;99.90;;;;;;6167912;23;20352;-78
2021/11/26 09:33:50;;;;;;;10.10;6.05;;;9.20;99.90;;;;;;6166457;23;19915;-77
2021/11/26 09:36:16;;;;;;;13.05;7.82;;;9.10;99.90;;;;;;6164477;23;20005;-78
2021/11/26 09:38:42;;;;;;;;;;;9.10;99.90;;;;;;6164746;23;20064;-78
2021/11/26 09:41:13;;;;;;;13.57;6.70;;;9.10;99.90;;;;;;6166557;23;19935;-78
2021/11/26 09:43:39;;;;;;;12.60;7.47;;;9.20;99.90;;;;;;6163877;23;20029;-77
2021/11/26 09:46:05;;;;;;;10.13;6.70;;;9.10;99.90;;;;;;6164804;23;20049;-78
2021/11/26 09:48:34;;;;;;;10.95;6.93;;;9.10;99.90;;;;;;6163666;23;20005;-78
2021/11/26 09:51:03;;;;;;;11.18;6.72;;;9.20;99.90;;;;;;6163434;23;20017;-77
2021/11/26 09:53:29;;;;;;;8.95;5.70;;;9.40;99.90;;;;;;6166586;23;20436;-78
2021/11/26 09:55:58;;;;;;;;;;;9.40;99.90;;;;;;6165079;23;20005;-77
2021/11/26 09:58:27;;;;;;;13.98;6.65;;;9.50;99.90;;;;;;6162850;23;19901;-77
2021/11/26 10:00:55;;;;;;;10.70;6.43;;;9.40;99.90;;;;;;6164149;23;20005;-78
2021/11/26 10:03:40;;;;;;;13.30;8.05;;;9.50;99.90;;;;;;6164204;23;20008;-77
2021/11/26 10:06:25;;;;;;;11.30;6.88;;;9.40;99.90;;;;;;6164500;23;20447;-78
2021/11/26 10:09:24;;;;;;;11.55;7.00;;;9.40;99.90;;;;;;6162633;23;20050;-77
2021/11/26 10:11:51;;;;;;;14.85;8.98;;;9.50;99.90;;;;;;6136100;23;20092;-77
2021/11/26 10:14:20;;;;;;;11.98;6.55;;;9.60;99.90;;;;;;6162901;23;20001;-77
2021/11/26 10:16:48;;;;;;;12.30;7.43;;;9.60;99.90;;;;;;6163088;23;20138;-78
2021/11/26 10:19:15;;;;;;;12.27;5.80;;;9.40;99.90;;;;;;6162043;23;20002;-78
2021/11/26 10:21:42;;;;;;;13.77;8.18;;;9.80;99.60;;;;;;6165299;23;20040;-77
2021/11/26 10:24:17;;;;;;;31.60;18.10;;;9.60;99.90;;;;;;6164587;23;20005;-78
2021/11/26 10:26:55;;;;;;;19.17;11.48;;;9.70;99.20;;;;;;6162668;23;20009;-77
2021/11/26 10:29:33;;;;;;;46.33;23.33;;;9.70;99.20;;;;;;6165041;23;20009;-77
2021/11/26 10:32:06;;;;;;;29.40;15.40;;;9.80;98.20;;;;;;6162930;23;20013;-77
2021/11/26 10:34:32;;;;;;;14.88;9.13;;;9.70;98.50;;;;;;6162145;23;20012;-77
2021/11/26 10:36:58;;;;;;;11.00;7.70;;;9.70;98.70;;;;;;6160414;23;20001;-77
2021/11/26 10:39:24;;;;;;;;;;;9.80;98.40;;;;;;6162569;23;20045;-77
2021/11/26 10:41:54;;;;;;;9.02;5.85;;;9.70;98.70;;;;;;6160881;23;19967;-78
2021/11/26 10:44:32;;;;;;;10.48;5.88;;;9.70;99.00;;;;;;6162926;23;20005;-77
2021/11/26 10:47:12;;;;;;;16.08;6.53;;;9.70;99.30;;;;;;6161118;23;20012;-77
2021/11/26 10:57:42;;;;;;;12.90;7.45;;;9.70;98.90;;;;;;6163119;23;20041;-78
2021/11/26 11:00:19;;;;;;;11.65;7.60;;;9.80;99.30;;;;;;6163315;23;19997;-77
2021/11/26 11:02:48;;;;;;;24.40;14.27;;;9.80;98.70;;;;;;6162091;23;20017;-77
2021/11/26 11:05:36;;;;;;;19.58;9.93;;;9.70;99.40;;;;;;6160928;23;20108;-77
2021/11/26 11:08:05;;;;;;;41.50;27.42;;;9.70;99.20;;;;;;6161482;23;20002;-77
2021/11/26 11:10:34;;;;;;;28.65;19.40;;;9.70;99.40;;;;;;6159762;23;20013;-77
2021/11/26 11:13:26;;;;;;;12.50;8.88;;;9.80;99.20;;;;;;6160565;23;20730;-77
2021/11/26 11:15:53;;;;;;;11.20;6.57;;;9.80;99.10;;;;;;6141380;23;20033;-77
2021/11/26 11:18:18;;;;;;;14.13;6.47;;;9.90;98.20;;;;;;6160275;23;20343;-77
2021/11/26 11:20:44;;;;;;;;;;;9.90;98.00;;;;;;6161109;23;20001;-77
2021/11/26 11:23:10;;;;;;;11.15;6.38;;;9.90;98.40;;;;;;6161406;23;19900;-76
2021/11/26 11:25:38;;;;;;;26.20;14.63;;;9.90;98.90;;;;;;6160359;23;20100;-78
2021/11/26 11:28:08;;;;;;;16.75;10.13;;;9.80;99.70;;;;;;6160929;23;20178;-78
2021/11/26 11:30:34;;;;;;;14.90;10.15;;;9.90;99.90;;;;;;6157937;23;20006;-78
2021/11/26 11:33:00;;;;;;;8.63;5.90;;;9.80;99.90;;;;;;6159271;23;20005;-78
2021/11/26 11:35:27;;;;;;;;;;;9.90;99.90;;;;;;6157844;23;20012;-78
2021/11/26 11:37:54;;;;;;;11.55;7.57;;;9.80;99.90;;;;;;6160908;23;19987;-77
2021/11/26 11:40:28;;;;;;;9.32;5.90;;;9.70;99.90;;;;;;6162292;23;20008;-77
2021/11/26 11:43:06;;;;;;;9.27;5.60;;;9.70;99.90;;;;;;6161719;23;20435;-77
2021/11/26 11:45:32;;;;;;;10.00;6.25;;;9.70;99.90;;;;;;6158726;23;20048;-77
2021/11/26 11:47:57;;;;;;;;;;;9.70;99.90;;;;;;6158010;23;20002;-78
2021/11/26 11:50:28;;;;;;;12.93;7.63;;;9.60;99.90;;;;;;6160151;23;19908;-77
2021/11/26 11:52:58;;;;;;;10.35;6.70;;;9.60;99.90;;;;;;6159281;23;20005;-77
2021/11/26 11:55:39;;;;;;;31.33;18.65;;;9.60;99.90;;;;;;6159345;23;20006;-77
2021/11/26 11:58:26;;;;;;;31.52;19.20;;;9.50;99.90;;;;;;6157775;23;20351;-78
2021/11/26 12:00:54;;;;;;;9.35;6.03;;;9.60;99.90;;;;;;6161150;23;20008;-77
2021/11/26 12:03:22;;;;;;;18.52;11.82;;;9.50;99.90;;;;;;6159046;23;20009;-78
2021/11/26 12:06:03;;;;;;;12.32;8.13;;;9.40;99.90;;;;;;6159323;23;20021;-77
2021/11/26 12:08:30;;;;;;;11.35;7.07;;;9.40;99.90;;;;;;6158791;23;20009;-77
2021/11/26 12:10:58;;;;;;;10.40;6.18;;;9.20;99.90;;;;;;6159390;23;20089;-77
2021/11/26 12:13:28;;;;;;;24.08;17.77;;;9.30;99.90;;;;;;6158769;23;20016;-77
2021/11/26 12:16:07;;;;;;;19.90;15.05;;;9.20;99.90;;;;;;6158948;23;20383;-77
2021/11/26 12:18:51;;;;;;;12.52;6.90;;;9.30;99.90;;;;;;6160707;23;20002;-77
2021/11/26 12:21:25;;;;;;;22.17;12.85;;;9.50;99.90;;;;;;6160493;23;20002;-77
2021/11/26 12:26:48;;;;;;;11.85;7.93;;;9.30;99.90;;;;;;6171668;23;20013;-78
2021/11/26 12:29:15;;;;;;;31.83;21.10;;;9.20;99.90;;;;;;6157364;23;20347;-77
2021/11/26 12:31:41;;;;;;;23.05;14.05;;;9.00;99.90;;;;;;6158196;23;20037;-77
2021/11/26 12:34:08;;;;;;;;;;;8.80;99.90;;;;;;6154556;23;20012;-77
2021/11/26 12:36:59;;;;;;;7.95;6.03;;;8.90;99.90;;;;;;6153296;23;19923;-76
2021/11/26 12:39:30;;;;;;;15.48;10.98;;;8.90;99.90;;;;;;6151333;23;20076;-77
2021/11/26 12:41:57;;;;;;;12.18;7.63;;;8.80;99.90;;;;;;6156021;23;20061;-77
2021/11/26 12:44:34;;;;;;;10.48;7.15;;;8.70;99.90;;;;;;6154452;23;20024;-77
2021/11/26 12:47:04;;;;;;;11.98;8.43;;;8.60;99.90;;;;;;6153425;23;20080;-77
2021/11/26 12:52:14;;;;;;;17.83;11.57;;;8.50;99.90;;;;;;6166377;23;20016;-76
2021/11/26 12:54:48;;;;;;;9.00;6.32;;;8.40;99.90;;;;;;6156023;23;20451;-76
2021/11/26 12:57:21;;;;;;;32.47;17.85;;;8.50;99.90;;;;;;6157280;23;20406;-77
2021/11/26 12:59:53;;;;;;;21.50;13.07;;;8.30;99.90;;;;;;6159224;23;20433;-76
2021/11/26 13:02:20;;;;;;;17.92;10.18;;;8.40;99.90;;;;;;6155467;23;20001;-77
2021/11/26 13:04:48;;;;;;;31.10;18.92;;;8.40;99.90;;;;;;6156692;23;20013;-77
2021/11/26 13:07:14;;;;;;;26.98;17.73;;;8.50;99.90;;;;;;6157009;23;20009;-77
2021/11/26 13:09:45;;;;;;;31.70;18.33;;;8.40;99.90;;;;;;6156863;23;20419;-77
2021/11/26 13:12:12;;;;;;;19.63;11.70;;;8.30;99.90;;;;;;6159600;23;20006;-77
2021/11/26 13:14:58;;;;;;;25.40;15.68;;;8.20;99.90;;;;;;6158560;23;20494;-76
2021/11/26 13:17:34;;;;;;;21.00;12.23;;;8.30;99.90;;;;;;6157631;23;20037;-77
2021/11/26 13:20:13;;;;;;;20.95;10.98;;;8.30;99.90;;;;;;6157497;23;20037;-77
2021/11/26 13:22:52;;;;;;;25.60;13.00;;;8.30;99.90;;;;;;6159358;23;20082;-76
2021/11/26 13:25:23;;;;;;;32.72;14.20;;;8.20;99.90;;;;;;6159518;23;20025;-81